Time;durP1;ratioP1;P1;durP2;ratioP2;P2;SDS_P1;SDS_P2;PMS_P1;PMS_P2;Temp;Humidity;BMP_temperature;BMP_pressure;BME280_temperature;BME280_humidity;BME280_pressure;Samples;Min_cycle;Max_cycle;Signal;HPM_P1;HPM_P2
2021/12/17 16:39:47;;;;;;;102.28;42.10;;;;;;;;;;5123253;27;20380;-67
2021/12/17 16:42:17;;;;;;;91.25;38.50;;;;;;;;;;5125695;28;20027;-65
2021/12/17 16:45:21;;;;;;;89.13;36.75;;;;;;;;;;5108388;28;20023;-65
2021/12/17 16:47:34;;;;;;;74.47;35.97;;;;;;;;;;5124700;28;20118;-65
2021/12/17 16:50:00;;;;;;;81.90;41.63;;;;;;;;;;5107585;28;20023;-64
2021/12/17 16:52:29;;;;;;;78.13;38.92;;;;;;;;;;5125373;28;20011;-64
2021/12/17 16:54:55;;;;;;;72.68;38.78;;;;;;;;;;5122765;28;20015;-64
2021/12/17 16:57:21;;;;;;;68.90;36.00;;;;;;;;;;5123075;28;20026;-64
2021/12/17 16:59:48;;;;;;;72.63;33.22;;;;;;;;;;5125768;28;20032;-64
2021/12/17 17:02:14;;;;;;;54.20;30.67;;;;;;;;;;5125764;28;20056;-64
2021/12/17 17:04:40;;;;;;;55.72;31.70;;;;;;;;;;5125968;28;20050;-64
2021/12/17 17:07:06;;;;;;;58.28;30.08;;;;;;;;;;5106229;28;20016;-64
2021/12/17 17:09:33;;;;;;;53.95;29.15;;;;;;;;;;5124724;28;20035;-64
2021/12/17 17:12:04;;;;;;;54.75;29.20;;;;;;;;;;5134753;27;20354;-65
2021/12/17 17:14:32;;;;;;;51.17;27.50;;;;;;;;;;5131370;27;20023;-64
2021/12/17 17:16:58;;;;;;;46.22;26.65;;;;;;;;;;5126570;28;20094;-64
2021/12/17 17:19:24;;;;;;;44.70;24.38;;;;;;;;;;5119794;27;20035;-63
2021/12/17 17:21:50;;;;;;;43.67;24.52;;;;;;;;;;5113638;28;20023;-64
2021/12/17 17:24:17;;;;;;;51.53;26.63;;;;;;;;;;5125807;27;20155;-63
2021/12/17 17:26:44;;;;;;;50.50;25.75;;;;;;;;;;5104405;28;20028;-64
2021/12/17 17:29:10;;;;;;;50.72;27.40;;;;;;;;;;5124905;28;20023;-63
2021/12/17 17:31:36;;;;;;;47.33;26.70;;;;;;;;;;5126104;28;20382;-64
2021/12/17 17:34:04;;;;;;;47.97;25.38;;;;;;;;;;5108661;28;20027;-64
2021/12/17 17:36:30;;;;;;;47.17;25.75;;;;;;;;;;5124878;28;20323;-64
2021/12/17 17:38:57;;;;;;;53.92;26.77;;;;;;;;;;5107491;28;20920;-64
2021/12/17 17:41:25;;;;;;;54.55;29.15;;;;;;;;;;5125937;28;20047;-64
2021/12/17 17:43:56;;;;;;;59.78;30.23;;;;;;;;;;5126464;28;20370;-63
2021/12/17 17:46:23;;;;;;;54.47;29.88;;;;;;;;;;5090385;28;20022;-64
2021/12/17 17:48:49;;;;;;;67.55;34.92;;;;;;;;;;5125733;28;20039;-64
2021/12/17 17:51:15;;;;;;;61.50;32.78;;;;;;;;;;5108907;28;20419;-63
2021/12/17 17:53:41;;;;;;;66.43;33.97;;;;;;;;;;5112787;28;20488;-63
2021/12/17 17:56:07;;;;;;;64.32;33.95;;;;;;;;;;5110119;28;20027;-63
2021/12/17 17:58:33;;;;;;;58.90;32.78;;;;;;;;;;5109961;28;20019;-65
2021/12/17 18:00:59;;;;;;;62.72;33.78;;;;;;;;;;5111216;28;20012;-63
2021/12/17 18:03:25;;;;;;;60.97;33.55;;;;;;;;;;5092329;28;20043;-63
2021/12/17 18:05:53;;;;;;;56.75;32.50;;;;;;;;;;5112802;28;20103;-64
2021/12/17 18:08:19;;;;;;;66.18;34.67;;;;;;;;;;5112464;28;20160;-64
2021/12/17 18:10:47;;;;;;;80.90;40.97;;;;;;;;;;5111137;28;20035;-64
2021/12/17 18:13:17;;;;;;;67.95;35.28;;;;;;;;;;5097051;28;20092;-63
2021/12/17 18:15:44;;;;;;;66.80;34.72;;;;;;;;;;5105515;28;20382;-63
2021/12/17 18:18:10;;;;;;;63.92;35.10;;;;;;;;;;5094228;28;20028;-63
2021/12/17 18:20:36;;;;;;;68.43;33.22;;;;;;;;;;5101883;28;20016;-63
2021/12/17 18:23:02;;;;;;;60.72;34.22;;;;;;;;;;5112443;28;20430;-63
2021/12/17 18:25:28;;;;;;;70.47;35.97;;;;;;;;;;5106616;28;20016;-62
2021/12/17 18:27:54;;;;;;;67.90;33.65;;;;;;;;;;5094552;28;20024;-63
2021/12/17 18:30:20;;;;;;;62.47;34.13;;;;;;;;;;5111017;28;20033;-62
2021/12/17 18:32:49;;;;;;;61.38;34.53;;;;;;;;;;5109483;28;20055;-62
2021/12/17 18:35:15;;;;;;;65.68;35.00;;;;;;;;;;5111366;28;20058;-62
2021/12/17 18:37:41;;;;;;;62.63;34.78;;;;;;;;;;5109945;28;20039;-64
2021/12/17 18:40:10;;;;;;;62.58;32.70;;;;;;;;;;5107859;28;20044;-63
2021/12/17 18:45:20;;;;;;;62.60;32.85;;;;;;;;;;5104302;28;20034;-62
2021/12/17 18:47:46;;;;;;;69.65;36.35;;;;;;;;;;5110867;28;20031;-63
2021/12/17 18:50:12;;;;;;;62.17;33.97;;;;;;;;;;5110808;28;20470;-63
2021/12/17 18:52:38;;;;;;;72.47;37.17;;;;;;;;;;5111087;28;20050;-63
2021/12/17 18:55:05;;;;;;;59.85;35.53;;;;;;;;;;5110654;28;20015;-63
2021/12/17 18:57:31;;;;;;;58.55;32.92;;;;;;;;;;5100721;28;20099;-63
2021/12/17 18:59:57;;;;;;;61.22;34.63;;;;;;;;;;5092400;28;20035;-63
2021/12/17 19:02:24;;;;;;;53.88;31.98;;;;;;;;;;5108604;28;20084;-64
2021/12/17 19:04:50;;;;;;;61.40;36.67;;;;;;;;;;5108920;28;20479;-63
2021/12/17 19:07:17;;;;;;;62.70;36.80;;;;;;;;;;5108563;28;20032;-64
2021/12/17 19:09:43;;;;;;;58.00;37.90;;;;;;;;;;5109034;28;20032;-64
2021/12/17 19:12:09;;;;;;;56.30;34.40;;;;;;;;;;5110111;28;20032;-63
2021/12/17 19:14:37;;;;;;;54.80;31.85;;;;;;;;;;5106978;28;20157;-62
2021/12/17 19:17:03;;;;;;;49.30;30.33;;;;;;;;;;5109054;28;20018;-64
2021/12/17 19:19:39;;;;;;;51.17;32.90;;;;;;;;;;5111116;28;20032;-64
2021/12/17 19:24:50;;;;;;;50.20;30.70;;;;;;;;;;5110136;28;20031;-64
2021/12/17 19:27:16;;;;;;;48.33;30.45;;;;;;;;;;5109617;28;20031;-63
2021/12/17 19:29:42;;;;;;;45.33;28.45;;;;;;;;;;5110732;28;20394;-64
2021/12/17 19:32:08;;;;;;;53.05;30.73;;;;;;;;;;5111108;28;20398;-64
2021/12/17 19:34:35;;;;;;;43.08;27.27;;;;;;;;;;5107260;28;20035;-64
2021/12/17 19:37:01;;;;;;;44.97;27.88;;;;;;;;;;5111265;28;20382;-64
2021/12/17 19:39:27;;;;;;;48.05;29.10;;;;;;;;;;5110239;28;20044;-64
2021/12/17 19:41:53;;;;;;;42.63;26.83;;;;;;;;;;5110468;28;20032;-64
2021/12/17 19:44:19;;;;;;;46.95;29.48;;;;;;;;;;5100464;28;20020;-64
2021/12/17 19:51:53;;;;;;;41.42;26.23;;;;;;;;;;5110758;28;20565;-64
2021/12/17 19:54:19;;;;;;;52.95;27.90;;;;;;;;;;5092205;28;20024;-64
2021/12/17 19:56:45;;;;;;;39.03;23.92;;;;;;;;;;5110014;28;20466;-64
2021/12/17 19:59:11;;;;;;;39.42;25.52;;;;;;;;;;5097485;28;20079;-64
2021/12/17 20:01:37;;;;;;;37.80;24.67;;;;;;;;;;5091146;28;20537;-63
2021/12/17 20:04:05;;;;;;;37.05;25.10;;;;;;;;;;5110045;28;20107;-63
2021/12/17 20:06:31;;;;;;;39.72;26.05;;;;;;;;;;5107600;28;20089;-64
2021/12/17 20:08:57;;;;;;;40.65;26.38;;;;;;;;;;5107063;28;20027;-64
2021/12/17 20:11:24;;;;;;;41.25;26.67;;;;;;;;;;5109150;28;20236;-63
2021/12/17 20:13:50;;;;;;;41.05;25.08;;;;;;;;;;5106905;28;20073;-63
2021/12/17 20:16:16;;;;;;;40.67;25.27;;;;;;;;;;5109235;28;20254;-64
2021/12/17 20:18:42;;;;;;;42.70;27.38;;;;;;;;;;5109690;28;20024;-65
2021/12/17 20:21:09;;;;;;;42.38;27.17;;;;;;;;;;5110275;28;20028;-66
2021/12/17 20:23:35;;;;;;;41.42;27.27;;;;;;;;;;5109845;28;20032;-66
2021/12/17 20:26:02;;;;;;;43.83;26.98;;;;;;;;;;5110370;28;20023;-65
2021/12/17 20:28:30;;;;;;;41.05;26.77;;;;;;;;;;5102452;28;20039;-65
2021/12/17 20:30:56;;;;;;;41.85;27.85;;;;;;;;;;5098371;28;20413;-65
2021/12/17 20:33:22;;;;;;;36.03;26.77;;;;;;;;;;5110110;28;20416;-65
2021/12/17 20:35:49;;;;;;;37.97;26.23;;;;;;;;;;5109951;28;20028;-68
2021/12/17 20:38:15;;;;;;;42.47;28.95;;;;;;;;;;5109675;28;20495;-67
2021/12/17 20:40:42;;;;;;;43.65;29.23;;;;;;;;;;5109424;28;20019;-66
2021/12/17 20:43:15;;;;;;;41.22;27.38;;;;;;;;;;5108611;28;20088;-66
2021/12/17 20:45:41;;;;;;;42.92;29.23;;;;;;;;;;5108821;28;20028;-66
2021/12/17 20:48:07;;;;;;;42.08;28.08;;;;;;;;;;5108515;28;20023;-66
2021/12/17 20:50:33;;;;;;;50.92;31.80;;;;;;;;;;5108163;28;20031;-66
2021/12/17 20:53:00;;;;;;;46.35;29.35;;;;;;;;;;5118039;28;20080;-67
2021/12/17 20:55:26;;;;;;;48.97;30.75;;;;;;;;;;5130710;28;20199;-65
2021/12/17 20:57:52;;;;;;;44.47;28.65;;;;;;;;;;5129737;28;20023;-64
2021/12/17 21:00:25;;;;;;;40.97;29.52;;;;;;;;;;5110674;28;20027;-63
2021/12/17 21:02:51;;;;;;;44.13;28.73;;;;;;;;;;5109114;28;20611;-63
2021/12/17 21:05:18;;;;;;;42.90;29.65;;;;;;;;;;5110286;28;20478;-63
2021/12/17 21:07:44;;;;;;;45.28;28.77;;;;;;;;;;5092032;28;20027;-63
2021/12/17 21:10:10;;;;;;;44.58;30.08;;;;;;;;;;5109905;28;20119;-63
2021/12/17 21:12:41;;;;;;;40.97;27.98;;;;;;;;;;5108899;28;20023;-64
2021/12/17 21:15:09;;;;;;;40.35;28.08;;;;;;;;;;5088323;28;20196;-63
2021/12/17 21:17:36;;;;;;;41.67;27.60;;;;;;;;;;5109517;28;20072;-63
2021/12/17 21:20:03;;;;;;;42.47;27.30;;;;;;;;;;5109961;28;20525;-64
2021/12/17 21:22:29;;;;;;;42.25;28.38;;;;;;;;;;5109720;28;20490;-64
2021/12/17 21:24:55;;;;;;;41.60;27.33;;;;;;;;;;5111021;28;20026;-64
2021/12/17 21:27:21;;;;;;;39.50;26.50;;;;;;;;;;5113217;28;20019;-64
2021/12/17 21:29:47;;;;;;;39.83;27.13;;;;;;;;;;5112980;28;20031;-64
2021/12/17 21:32:13;;;;;;;40.00;27.45;;;;;;;;;;5112771;28;20036;-64
2021/12/17 21:34:39;;;;;;;39.42;25.33;;;;;;;;;;5112421;28;20063;-64
2021/12/17 21:37:06;;;;;;;41.97;27.45;;;;;;;;;;5113736;28;20036;-64
2021/12/17 21:39:32;;;;;;;35.78;24.88;;;;;;;;;;5113284;28;20047;-64
2021/12/17 21:41:59;;;;;;;38.90;24.67;;;;;;;;;;5094322;28;20118;-63
2021/12/17 21:44:25;;;;;;;39.78;26.23;;;;;;;;;;5113056;28;20019;-64
2021/12/17 21:46:51;;;;;;;41.28;29.30;;;;;;;;;;5116663;27;20106;-63
2021/12/17 21:49:17;;;;;;;42.35;31.27;;;;;;;;;;5110338;28;20051;-63
2021/12/17 21:51:43;;;;;;;40.17;27.17;;;;;;;;;;5113294;28;20034;-63
2021/12/17 21:54:09;;;;;;;34.67;24.30;;;;;;;;;;5113175;28;20039;-63
2021/12/17 21:56:35;;;;;;;36.38;23.98;;;;;;;;;;5111989;28;20035;-63
2021/12/17 21:59:01;;;;;;;33.00;23.35;;;;;;;;;;5112954;28;20378;-64
2021/12/17 22:01:28;;;;;;;37.05;22.80;;;;;;;;;;5113193;28;20027;-64
2021/12/17 22:03:58;;;;;;;35.50;23.10;;;;;;;;;;5112451;28;20023;-65
2021/12/17 22:06:24;;;;;;;36.10;23.90;;;;;;;;;;5112623;27;20027;-63
2021/12/17 22:08:50;;;;;;;33.10;22.55;;;;;;;;;;5109206;28;20019;-63
2021/12/17 22:11:16;;;;;;;31.83;22.17;;;;;;;;;;5110683;28;20098;-64
2021/12/17 22:13:42;;;;;;;35.10;22.65;;;;;;;;;;5112166;27;20106;-65
2021/12/17 22:16:08;;;;;;;32.35;23.60;;;;;;;;;;5112511;28;20031;-64
2021/12/17 22:18:43;;;;;;;31.02;20.23;;;;;;;;;;5112205;28;20081;-64
2021/12/17 22:21:13;;;;;;;31.92;20.35;;;;;;;;;;5112736;28;20016;-64
2021/12/17 22:23:39;;;;;;;31.20;21.65;;;;;;;;;;5131746;27;20022;-65
2021/12/17 22:26:05;;;;;;;30.05;20.35;;;;;;;;;;5132546;27;20572;-64
2021/12/17 22:28:31;;;;;;;28.92;19.85;;;;;;;;;;5133108;27;20401;-64
2021/12/17 22:30:57;;;;;;;28.67;20.05;;;;;;;;;;5133013;27;20485;-64
2021/12/17 22:33:23;;;;;;;28.25;18.90;;;;;;;;;;5117303;27;20040;-63
2021/12/17 22:35:49;;;;;;;26.30;18.38;;;;;;;;;;5111929;27;20035;-64
2021/12/17 22:38:16;;;;;;;28.08;18.63;;;;;;;;;;5112235;28;20071;-64
2021/12/17 22:41:04;;;;;;;28.10;17.90;;;;;;;;;;5111200;28;20023;-64
2021/12/17 22:43:31;;;;;;;30.60;18.63;;;;;;;;;;5092147;28;20560;-64
2021/12/17 22:45:57;;;;;;;29.27;18.30;;;;;;;;;;5131219;27;20084;-64
2021/12/17 22:48:23;;;;;;;29.02;18.42;;;;;;;;;;5121736;27;20031;-67
2021/12/17 22:50:50;;;;;;;25.48;17.02;;;;;;;;;;5112249;28;20470;-68
2021/12/17 22:53:16;;;;;;;25.48;17.08;;;;;;;;;;5112318;28;20489;-68
2021/12/17 22:55:42;;;;;;;24.30;16.65;;;;;;;;;;5111649;28;20019;-67
2021/12/17 22:58:08;;;;;;;29.77;17.20;;;;;;;;;;5119449;27;20031;-67
2021/12/17 23:00:50;;;;;;;26.65;17.38;;;;;;;;;;5099416;28;20031;-67
2021/12/17 23:03:16;;;;;;;30.45;18.70;;;;;;;;;;5111846;28;20081;-67
2021/12/17 23:05:42;;;;;;;25.67;17.13;;;;;;;;;;5113819;27;20084;-68
2021/12/17 23:08:14;;;;;;;26.88;17.33;;;;;;;;;;5123048;27;20051;-67
